sensor_id;sensor_type;location;lat;lon;timestamp;P1;durP1;ratioP1;P2;durP2;ratioP2
29320;SDS011;16323;51.130;6.612;2022-10-15T00:01:05;0.70;;;0.68;;
29320;SDS011;16323;51.130;6.612;2022-10-15T00:03:37;1.15;;;0.70;;
29320;SDS011;16323;51.130;6.612;2022-10-15T00:06:05;2.10;;;0.73;;
29320;SDS011;16323;51.130;6.612;2022-10-15T00:08:33;1.33;;;0.90;;
29320;SDS011;16323;51.130;6.612;2022-10-15T00:11:02;0.68;;;0.68;;
29320;SDS011;16323;51.130;6.612;2022-10-15T00:13:31;1.25;;;0.75;;
29320;SDS011;16323;51.130;6.612;2022-10-15T00:15:58;1.10;;;0.80;;
29320;SDS011;16323;51.130;6.612;2022-10-15T00:18:25;0.80;;;0.60;;
29320;SDS011;16323;51.130;6.612;2022-10-15T00:20:52;1.23;;;0.80;;
29320;SDS011;16323;51.130;6.612;2022-10-15T00:23:19;0.70;;;0.70;;
29320;SDS011;16323;51.130;6.612;2022-10-15T00:25:47;1.35;;;0.70;;
29320;SDS011;16323;51.130;6.612;2022-10-15T00:28:15;0.85;;;0.60;;
29320;SDS011;16323;51.130;6.612;2022-10-15T00:30:42;1.15;;;0.85;;
29320;SDS011;16323;51.130;6.612;2022-10-15T00:33:09;0.93;;;0.68;;
29320;SDS011;16323;51.130;6.612;2022-10-15T00:35:35;0.57;;;0.57;;
29320;SDS011;16323;51.130;6.612;2022-10-15T00:38:02;0.90;;;0.70;;
29320;SDS011;16323;51.130;6.612;2022-10-15T00:40:29;0.65;;;0.60;;
29320;SDS011;16323;51.130;6.612;2022-10-15T00:42:56;1.27;;;0.60;;
29320;SDS011;16323;51.130;6.612;2022-10-15T00:45:24;0.98;;;0.85;;
29320;SDS011;16323;51.130;6.612;2022-10-15T00:47:51;0.90;;;0.73;;
29320;SDS011;16323;51.130;6.612;2022-10-15T00:50:25;1.73;;;0.68;;
29320;SDS011;16323;51.130;6.612;2022-10-15T00:52:56;1.08;;;0.90;;
29320;SDS011;16323;51.130;6.612;2022-10-15T00:55:28;1.40;;;0.82;;
29320;SDS011;16323;51.130;6.612;2022-10-15T00:57:57;0.82;;;0.80;;
29320;SDS011;16323;51.130;6.612;2022-10-15T01:00:28;1.45;;;0.88;;
29320;SDS011;16323;51.130;6.612;2022-10-15T01:02:55;1.05;;;0.60;;
29320;SDS011;16323;51.130;6.612;2022-10-15T01:05:21;1.00;;;0.75;;
29320;SDS011;16323;51.130;6.612;2022-10-15T01:07:49;1.27;;;0.85;;
29320;SDS011;16323;51.130;6.612;2022-10-15T01:10:16;0.73;;;0.60;;
29320;SDS011;16323;51.130;6.612;2022-10-15T01:12:50;0.90;;;0.73;;
29320;SDS011;16323;51.130;6.612;2022-10-15T01:15:23;1.67;;;0.80;;
29320;SDS011;16323;51.130;6.612;2022-10-15T01:17:56;1.27;;;0.77;;
29320;SDS011;16323;51.130;6.612;2022-10-15T01:20:39;0.88;;;0.75;;
29320;SDS011;16323;51.130;6.612;2022-10-15T01:23:30;1.02;;;0.70;;
29320;SDS011;16323;51.130;6.612;2022-10-15T01:29:21;1.83;;;0.77;;
29320;SDS011;16323;51.130;6.612;2022-10-15T01:32:04;0.75;;;0.70;;
29320;SDS011;16323;51.130;6.612;2022-10-15T01:34:38;1.13;;;0.80;;
29320;SDS011;16323;51.130;6.612;2022-10-15T01:37:13;0.98;;;0.60;;
29320;SDS011;16323;51.130;6.612;2022-10-15T01:39:45;2.45;;;0.80;;
29320;SDS011;16323;51.130;6.612;2022-10-15T01:42:21;1.02;;;0.65;;
29320;SDS011;16323;51.130;6.612;2022-10-15T01:44:52;0.80;;;0.60;;
29320;SDS011;16323;51.130;6.612;2022-10-15T01:47:26;0.95;;;0.60;;
29320;SDS011;16323;51.130;6.612;2022-10-15T01:49:57;1.15;;;0.70;;
29320;SDS011;16323;51.130;6.612;2022-10-15T01:52:28;0.85;;;0.60;;
29320;SDS011;16323;51.130;6.612;2022-10-15T01:54:58;1.17;;;0.65;;
29320;SDS011;16323;51.130;6.612;2022-10-15T01:57:26;1.42;;;0.60;;
29320;SDS011;16323;51.130;6.612;2022-10-15T01:59:55;2.20;;;0.80;;
29320;SDS011;16323;51.130;6.612;2022-10-15T02:02:22;0.98;;;0.70;;
29320;SDS011;16323;51.130;6.612;2022-10-15T02:04:50;1.30;;;0.85;;
29320;SDS011;16323;51.130;6.612;2022-10-15T02:07:18;2.20;;;0.90;;
29320;SDS011;16323;51.130;6.612;2022-10-15T02:09:56;1.70;;;0.63;;
29320;SDS011;16323;51.130;6.612;2022-10-15T02:12:30;0.93;;;0.60;;
29320;SDS011;16323;51.130;6.612;2022-10-15T02:15:05;1.05;;;0.70;;
29320;SDS011;16323;51.130;6.612;2022-10-15T02:17:39;2.38;;;0.90;;
29320;SDS011;16323;51.130;6.612;2022-10-15T02:20:11;1.25;;;0.80;;
29320;SDS011;16323;51.130;6.612;2022-10-15T02:22:42;0.68;;;0.68;;
29320;SDS011;16323;51.130;6.612;2022-10-15T02:25:15;1.60;;;0.80;;
29320;SDS011;16323;51.130;6.612;2022-10-15T02:27:44;1.48;;;0.68;;
29320;SDS011;16323;51.130;6.612;2022-10-15T02:30:14;2.03;;;0.80;;
29320;SDS011;16323;51.130;6.612;2022-10-15T02:32:44;1.27;;;0.60;;
29320;SDS011;16323;51.130;6.612;2022-10-15T02:35:14;0.68;;;0.60;;
29320;SDS011;16323;51.130;6.612;2022-10-15T02:37:41;1.05;;;0.60;;
29320;SDS011;16323;51.130;6.612;2022-10-15T02:40:11;2.13;;;1.00;;
29320;SDS011;16323;51.130;6.612;2022-10-15T02:42:38;2.03;;;0.60;;
29320;SDS011;16323;51.130;6.612;2022-10-15T02:45:05;0.60;;;0.60;;
29320;SDS011;16323;51.130;6.612;2022-10-15T02:47:33;1.65;;;0.68;;
29320;SDS011;16323;51.130;6.612;2022-10-15T02:50:01;0.98;;;0.70;;
29320;SDS011;16323;51.130;6.612;2022-10-15T02:52:28;0.73;;;0.60;;
29320;SDS011;16323;51.130;6.612;2022-10-15T02:55:00;1.35;;;0.80;;
29320;SDS011;16323;51.130;6.612;2022-10-15T02:57:27;1.58;;;0.80;;
29320;SDS011;16323;51.130;6.612;2022-10-15T02:59:53;2.80;;;0.90;;
29320;SDS011;16323;51.130;6.612;2022-10-15T03:02:20;0.88;;;0.65;;
29320;SDS011;16323;51.130;6.612;2022-10-15T03:04:49;0.63;;;0.60;;
29320;SDS011;16323;51.130;6.612;2022-10-15T03:07:17;1.58;;;0.77;;
29320;SDS011;16323;51.130;6.612;2022-10-15T03:09:44;1.90;;;0.60;;
29320;SDS011;16323;51.130;6.612;2022-10-15T03:12:10;1.40;;;0.85;;
29320;SDS011;16323;51.130;6.612;2022-10-15T03:14:39;1.02;;;0.65;;
29320;SDS011;16323;51.130;6.612;2022-10-15T03:17:06;1.10;;;0.63;;
29320;SDS011;16323;51.130;6.612;2022-10-15T03:19:33;0.82;;;0.60;;
29320;SDS011;16323;51.130;6.612;2022-10-15T03:22:00;1.50;;;0.63;;
29320;SDS011;16323;51.130;6.612;2022-10-15T03:24:28;0.75;;;0.75;;
29320;SDS011;16323;51.130;6.612;2022-10-15T03:26:54;1.00;;;0.75;;
29320;SDS011;16323;51.130;6.612;2022-10-15T03:29:21;0.88;;;0.68;;
29320;SDS011;16323;51.130;6.612;2022-10-15T03:31:50;0.52;;;0.50;;
29320;SDS011;16323;51.130;6.612;2022-10-15T03:34:17;0.70;;;0.50;;
29320;SDS011;16323;51.130;6.612;2022-10-15T03:36:44;0.70;;;0.60;;
29320;SDS011;16323;51.130;6.612;2022-10-15T03:39:11;1.00;;;0.68;;
29320;SDS011;16323;51.130;6.612;2022-10-15T03:41:40;1.70;;;0.90;;
29320;SDS011;16323;51.130;6.612;2022-10-15T03:44:07;1.25;;;0.65;;
29320;SDS011;16323;51.130;6.612;2022-10-15T03:46:34;0.93;;;0.77;;
29320;SDS011;16323;51.130;6.612;2022-10-15T03:49:01;0.45;;;0.32;;
29320;SDS011;16323;51.130;6.612;2022-10-15T03:51:28;0.95;;;0.70;;
29320;SDS011;16323;51.130;6.612;2022-10-15T03:53:54;0.77;;;0.60;;
29320;SDS011;16323;51.130;6.612;2022-10-15T03:56:27;0.98;;;0.60;;
29320;SDS011;16323;51.130;6.612;2022-10-15T03:58:55;0.50;;;0.50;;
29320;SDS011;16323;51.130;6.612;2022-10-15T04:01:23;0.60;;;0.60;;
29320;SDS011;16323;51.130;6.612;2022-10-15T04:03:50;1.17;;;0.70;;
29320;SDS011;16323;51.130;6.612;2022-10-15T04:06:18;0.52;;;0.45;;
29320;SDS011;16323;51.130;6.612;2022-10-15T04:08:45;1.52;;;0.75;;
29320;SDS011;16323;51.130;6.612;2022-10-15T04:11:12;1.08;;;0.77;;
29320;SDS011;16323;51.130;6.612;2022-10-15T04:13:38;1.10;;;0.70;;
29320;SDS011;16323;51.130;6.612;2022-10-15T04:16:07;0.70;;;0.70;;
29320;SDS011;16323;51.130;6.612;2022-10-15T04:18:33;1.27;;;0.80;;
29320;SDS011;16323;51.130;6.612;2022-10-15T04:21:00;0.73;;;0.70;;
29320;SDS011;16323;51.130;6.612;2022-10-15T04:23:27;0.70;;;0.60;;
29320;SDS011;16323;51.130;6.612;2022-10-15T04:25:57;1.50;;;0.90;;
29320;SDS011;16323;51.130;6.612;2022-10-15T04:28:25;1.10;;;0.73;;
29320;SDS011;16323;51.130;6.612;2022-10-15T04:30:54;0.65;;;0.63;;
29320;SDS011;16323;51.130;6.612;2022-10-15T04:33:24;1.48;;;0.93;;
29320;SDS011;16323;51.130;6.612;2022-10-15T04:35:56;0.90;;;0.77;;
29320;SDS011;16323;51.130;6.612;2022-10-15T04:38:24;1.27;;;0.70;;
29320;SDS011;16323;51.130;6.612;2022-10-15T04:40:57;1.00;;;0.80;;
29320;SDS011;16323;51.130;6.612;2022-10-15T04:43:25;1.20;;;0.80;;
29320;SDS011;16323;51.130;6.612;2022-10-15T04:45:54;1.17;;;0.73;;
29320;SDS011;16323;51.130;6.612;2022-10-15T04:48:21;1.17;;;0.80;;
29320;SDS011;16323;51.130;6.612;2022-10-15T04:50:49;0.93;;;0.60;;
29320;SDS011;16323;51.130;6.612;2022-10-15T04:53:16;0.80;;;0.57;;
29320;SDS011;16323;51.130;6.612;2022-10-15T04:55:43;1.65;;;0.80;;
29320;SDS011;16323;51.130;6.612;2022-10-15T04:58:10;2.83;;;1.17;;
29320;SDS011;16323;51.130;6.612;2022-10-15T05:00:36;1.20;;;0.77;;
29320;SDS011;16323;51.130;6.612;2022-10-15T05:03:03;3.13;;;0.90;;
29320;SDS011;16323;51.130;6.612;2022-10-15T05:05:32;1.27;;;0.70;;
29320;SDS011;16323;51.130;6.612;2022-10-15T05:07:59;1.63;;;0.70;;
29320;SDS011;16323;51.130;6.612;2022-10-15T05:10:26;0.90;;;0.70;;
29320;SDS011;16323;51.130;6.612;2022-10-15T05:12:53;1.02;;;0.73;;
29320;SDS011;16323;51.130;6.612;2022-10-15T05:15:20;0.88;;;0.63;;
29320;SDS011;16323;51.130;6.612;2022-10-15T05:17:46;1.38;;;0.73;;
29320;SDS011;16323;51.130;6.612;2022-10-15T05:20:13;0.85;;;0.68;;
29320;SDS011;16323;51.130;6.612;2022-10-15T05:22:41;0.75;;;0.70;;
29320;SDS011;16323;51.130;6.612;2022-10-15T05:25:08;1.17;;;0.60;;
29320;SDS011;16323;51.130;6.612;2022-10-15T05:27:35;0.70;;;0.70;;
29320;SDS011;16323;51.130;6.612;2022-10-15T05:30:02;0.90;;;0.75;;
29320;SDS011;16323;51.130;6.612;2022-10-15T05:32:29;1.48;;;0.82;;
29320;SDS011;16323;51.130;6.612;2022-10-15T05:34:56;1.30;;;0.95;;
29320;SDS011;16323;51.130;6.612;2022-10-15T05:37:23;1.33;;;0.70;;
29320;SDS011;16323;51.130;6.612;2022-10-15T05:39:51;1.15;;;0.73;;
29320;SDS011;16323;51.130;6.612;2022-10-15T05:42:17;1.65;;;1.02;;
29320;SDS011;16323;51.130;6.612;2022-10-15T05:44:44;0.88;;;0.68;;
29320;SDS011;16323;51.130;6.612;2022-10-15T05:47:11;1.17;;;0.80;;
29320;SDS011;16323;51.130;6.612;2022-10-15T05:49:39;1.65;;;0.85;;
29320;SDS011;16323;51.130;6.612;2022-10-15T05:52:05;1.58;;;0.90;;
29320;SDS011;16323;51.130;6.612;2022-10-15T05:54:32;1.17;;;0.95;;
29320;SDS011;16323;51.130;6.612;2022-10-15T05:57:00;2.88;;;0.93;;
29320;SDS011;16323;51.130;6.612;2022-10-15T05:59:27;1.10;;;0.95;;
29320;SDS011;16323;51.130;6.612;2022-10-15T06:01:54;1.52;;;0.90;;
29320;SDS011;16323;51.130;6.612;2022-10-15T06:04:20;1.20;;;0.80;;
29320;SDS011;16323;51.130;6.612;2022-10-15T06:06:47;1.45;;;1.15;;
29320;SDS011;16323;51.130;6.612;2022-10-15T06:09:14;1.27;;;1.00;;
29320;SDS011;16323;51.130;6.612;2022-10-15T06:11:41;1.35;;;1.05;;
29320;SDS011;16323;51.130;6.612;2022-10-15T06:14:09;1.20;;;1.10;;
29320;SDS011;16323;51.130;6.612;2022-10-15T06:16:37;0.98;;;0.93;;
29320;SDS011;16323;51.130;6.612;2022-10-15T06:19:03;1.52;;;1.17;;
29320;SDS011;16323;51.130;6.612;2022-10-15T06:21:30;1.45;;;0.98;;
29320;SDS011;16323;51.130;6.612;2022-10-15T06:23:57;1.75;;;1.27;;
29320;SDS011;16323;51.130;6.612;2022-10-15T06:26:24;1.30;;;1.20;;
29320;SDS011;16323;51.130;6.612;2022-10-15T06:28:51;2.10;;;1.40;;
29320;SDS011;16323;51.130;6.612;2022-10-15T06:31:19;2.25;;;1.35;;
29320;SDS011;16323;51.130;6.612;2022-10-15T06:33:46;1.50;;;1.25;;
29320;SDS011;16323;51.130;6.612;2022-10-15T06:36:12;1.35;;;1.20;;
29320;SDS011;16323;51.130;6.612;2022-10-15T06:38:39;1.98;;;1.35;;
29320;SDS011;16323;51.130;6.612;2022-10-15T06:41:08;2.53;;;1.20;;
29320;SDS011;16323;51.130;6.612;2022-10-15T06:43:35;2.15;;;1.25;;
29320;SDS011;16323;51.130;6.612;2022-10-15T06:46:02;2.42;;;1.60;;
29320;SDS011;16323;51.130;6.612;2022-10-15T06:48:31;1.80;;;1.25;;
29320;SDS011;16323;51.130;6.612;2022-10-15T06:50:59;1.95;;;1.40;;
29320;SDS011;16323;51.130;6.612;2022-10-15T06:53:27;1.73;;;1.20;;
29320;SDS011;16323;51.130;6.612;2022-10-15T06:55:55;1.45;;;1.10;;
29320;SDS011;16323;51.130;6.612;2022-10-15T06:58:23;1.83;;;1.33;;
29320;SDS011;16323;51.130;6.612;2022-10-15T07:00:49;1.50;;;1.30;;
29320;SDS011;16323;51.130;6.612;2022-10-15T07:03:16;1.75;;;1.17;;
29320;SDS011;16323;51.130;6.612;2022-10-15T07:05:44;1.42;;;1.20;;
29320;SDS011;16323;51.130;6.612;2022-10-15T07:08:11;1.98;;;1.23;;
29320;SDS011;16323;51.130;6.612;2022-10-15T07:10:38;1.67;;;1.50;;
29320;SDS011;16323;51.130;6.612;2022-10-15T07:13:05;1.25;;;1.15;;
29320;SDS011;16323;51.130;6.612;2022-10-15T07:15:31;1.75;;;1.33;;
29320;SDS011;16323;51.130;6.612;2022-10-15T07:17:59;1.40;;;1.30;;
29320;SDS011;16323;51.130;6.612;2022-10-15T07:20:26;2.22;;;1.50;;
29320;SDS011;16323;51.130;6.612;2022-10-15T07:22:56;1.50;;;1.38;;
29320;SDS011;16323;51.130;6.612;2022-10-15T07:25:23;3.25;;;1.60;;
29320;SDS011;16323;51.130;6.612;2022-10-15T07:27:51;2.00;;;1.35;;
29320;SDS011;16323;51.130;6.612;2022-10-15T07:30:19;1.70;;;1.48;;
29320;SDS011;16323;51.130;6.612;2022-10-15T07:32:46;1.60;;;1.40;;
29320;SDS011;16323;51.130;6.612;2022-10-15T07:35:13;1.55;;;1.38;;
29320;SDS011;16323;51.130;6.612;2022-10-15T07:37:40;1.67;;;1.42;;
29320;SDS011;16323;51.130;6.612;2022-10-15T07:40:08;1.70;;;1.45;;
29320;SDS011;16323;51.130;6.612;2022-10-15T07:42:36;1.60;;;1.50;;
29320;SDS011;16323;51.130;6.612;2022-10-15T07:45:05;1.70;;;1.42;;
29320;SDS011;16323;51.130;6.612;2022-10-15T07:47:32;1.40;;;1.20;;
29320;SDS011;16323;51.130;6.612;2022-10-15T07:49:59;1.35;;;1.15;;
29320;SDS011;16323;51.130;6.612;2022-10-15T07:52:26;1.70;;;1.40;;
29320;SDS011;16323;51.130;6.612;2022-10-15T07:54:53;1.83;;;1.23;;
29320;SDS011;16323;51.130;6.612;2022-10-15T07:57:21;1.85;;;1.20;;
29320;SDS011;16323;51.130;6.612;2022-10-15T07:59:47;1.85;;;1.52;;
29320;SDS011;16323;51.130;6.612;2022-10-15T08:02:14;1.27;;;1.17;;
29320;SDS011;16323;51.130;6.612;2022-10-15T08:04:42;2.30;;;1.45;;
29320;SDS011;16323;51.130;6.612;2022-10-15T08:07:08;1.27;;;1.00;;
29320;SDS011;16323;51.130;6.612;2022-10-15T08:09:35;1.30;;;0.95;;
29320;SDS011;16323;51.130;6.612;2022-10-15T08:12:02;1.45;;;1.10;;
29320;SDS011;16323;51.130;6.612;2022-10-15T08:14:32;2.13;;;1.00;;
29320;SDS011;16323;51.130;6.612;2022-10-15T08:16:59;1.20;;;1.10;;
29320;SDS011;16323;51.130;6.612;2022-10-15T08:19:27;1.38;;;1.20;;
29320;SDS011;16323;51.130;6.612;2022-10-15T08:21:53;1.55;;;1.20;;
29320;SDS011;16323;51.130;6.612;2022-10-15T08:24:20;1.15;;;0.90;;
29320;SDS011;16323;51.130;6.612;2022-10-15T08:26:47;1.15;;;0.80;;
29320;SDS011;16323;51.130;6.612;2022-10-15T08:29:14;1.48;;;0.93;;
29320;SDS011;16323;51.130;6.612;2022-10-15T08:31:42;1.40;;;0.90;;
29320;SDS011;16323;51.130;6.612;2022-10-15T08:34:09;1.38;;;0.95;;
29320;SDS011;16323;51.130;6.612;2022-10-15T08:36:36;0.70;;;0.70;;
29320;SDS011;16323;51.130;6.612;2022-10-15T08:39:03;1.52;;;1.10;;
29320;SDS011;16323;51.130;6.612;2022-10-15T08:41:31;0.80;;;0.80;;
29320;SDS011;16323;51.130;6.612;2022-10-15T08:44:05;1.52;;;0.90;;
29320;SDS011;16323;51.130;6.612;2022-10-15T08:46:38;0.80;;;0.80;;
29320;SDS011;16323;51.130;6.612;2022-10-15T08:49:13;1.25;;;0.80;;
29320;SDS011;16323;51.130;6.612;2022-10-15T08:51:53;1.05;;;0.70;;
29320;SDS011;16323;51.130;6.612;2022-10-15T08:54:26;1.08;;;0.70;;
29320;SDS011;16323;51.130;6.612;2022-10-15T08:57:00;1.00;;;0.90;;
29320;SDS011;16323;51.130;6.612;2022-10-15T08:59:36;0.60;;;0.60;;
29320;SDS011;16323;51.130;6.612;2022-10-15T09:02:09;0.98;;;0.63;;
29320;SDS011;16323;51.130;6.612;2022-10-15T09:04:46;0.93;;;0.60;;
29320;SDS011;16323;51.130;6.612;2022-10-15T09:07:20;0.50;;;0.50;;
29320;SDS011;16323;51.130;6.612;2022-10-15T09:09:51;1.30;;;0.70;;
29320;SDS011;16323;51.130;6.612;2022-10-15T09:12:29;0.55;;;0.55;;
29320;SDS011;16323;51.130;6.612;2022-10-15T09:15:04;0.95;;;0.70;;
29320;SDS011;16323;51.130;6.612;2022-10-15T09:17:37;0.43;;;0.43;;
29320;SDS011;16323;51.130;6.612;2022-10-15T09:20:13;0.68;;;0.50;;
29320;SDS011;16323;51.130;6.612;2022-10-15T09:22:42;0.55;;;0.52;;
29320;SDS011;16323;51.130;6.612;2022-10-15T09:25:13;0.40;;;0.40;;
29320;SDS011;16323;51.130;6.612;2022-10-15T09:27:41;0.60;;;0.50;;
29320;SDS011;16323;51.130;6.612;2022-10-15T09:30:14;0.52;;;0.50;;
29320;SDS011;16323;51.130;6.612;2022-10-15T09:32:50;0.52;;;0.52;;
29320;SDS011;16323;51.130;6.612;2022-10-15T09:35:25;0.45;;;0.45;;
29320;SDS011;16323;51.130;6.612;2022-10-15T09:37:58;0.80;;;0.60;;
29320;SDS011;16323;51.130;6.612;2022-10-15T09:40:34;0.40;;;0.40;;
29320;SDS011;16323;51.130;6.612;2022-10-15T09:43:09;0.90;;;0.45;;
29320;SDS011;16323;51.130;6.612;2022-10-15T09:45:37;0.50;;;0.40;;
29320;SDS011;16323;51.130;6.612;2022-10-15T09:48:05;0.50;;;0.50;;
29320;SDS011;16323;51.130;6.612;2022-10-15T09:50:42;0.50;;;0.50;;
29320;SDS011;16323;51.130;6.612;2022-10-15T09:53:14;0.50;;;0.50;;
29320;SDS011;16323;51.130;6.612;2022-10-15T09:55:49;0.80;;;0.50;;
29320;SDS011;16323;51.130;6.612;2022-10-15T09:58:19;0.30;;;0.30;;
29320;SDS011;16323;51.130;6.612;2022-10-15T10:00:54;0.30;;;0.30;;
29320;SDS011;16323;51.130;6.612;2022-10-15T10:03:24;0.40;;;0.40;;
29320;SDS011;16323;51.130;6.612;2022-10-15T10:05:59;0.38;;;0.38;;
29320;SDS011;16323;51.130;6.612;2022-10-15T10:08:36;0.70;;;0.50;;
29320;SDS011;16323;51.130;6.612;2022-10-15T10:11:05;0.95;;;0.40;;
29320;SDS011;16323;51.130;6.612;2022-10-15T10:13:35;0.43;;;0.43;;
29320;SDS011;16323;51.130;6.612;2022-10-15T10:16:05;1.00;;;0.60;;
29320;SDS011;16323;51.130;6.612;2022-10-15T10:18:36;0.35;;;0.32;;
29320;SDS011;16323;51.130;6.612;2022-10-15T10:21:05;1.15;;;0.57;;
29320;SDS011;16323;51.130;6.612;2022-10-15T10:23:45;0.55;;;0.40;;
29320;SDS011;16323;51.130;6.612;2022-10-15T10:26:12;0.65;;;0.40;;
29320;SDS011;16323;51.130;6.612;2022-10-15T10:28:42;0.38;;;0.38;;
29320;SDS011;16323;51.130;6.612;2022-10-15T10:31:14;0.80;;;0.40;;
29320;SDS011;16323;51.130;6.612;2022-10-15T10:33:42;0.30;;;0.30;;
29320;SDS011;16323;51.130;6.612;2022-10-15T10:36:23;0.32;;;0.30;;
29320;SDS011;16323;51.130;6.612;2022-10-15T10:38:56;0.30;;;0.30;;
29320;SDS011;16323;51.130;6.612;2022-10-15T10:44:18;1.30;;;0.30;;
29320;SDS011;16323;51.130;6.612;2022-10-15T10:46:58;0.80;;;0.32;;
29320;SDS011;16323;51.130;6.612;2022-10-15T10:49:32;0.45;;;0.40;;
29320;SDS011;16323;51.130;6.612;2022-10-15T10:52:03;0.30;;;0.20;;
29320;SDS011;16323;51.130;6.612;2022-10-15T10:54:30;0.30;;;0.30;;
29320;SDS011;16323;51.130;6.612;2022-10-15T10:56:59;0.25;;;0.25;;
29320;SDS011;16323;51.130;6.612;2022-10-15T10:59:27;0.63;;;0.40;;
29320;SDS011;16323;51.130;6.612;2022-10-15T11:01:58;0.50;;;0.30;;
29320;SDS011;16323;51.130;6.612;2022-10-15T11:04:28;0.40;;;0.30;;
29320;SDS011;16323;51.130;6.612;2022-10-15T11:06:59;0.95;;;0.50;;
29320;SDS011;16323;51.130;6.612;2022-10-15T11:09:34;0.40;;;0.40;;
29320;SDS011;16323;51.130;6.612;2022-10-15T11:12:10;0.50;;;0.40;;
29320;SDS011;16323;51.130;6.612;2022-10-15T11:14:51;1.25;;;0.30;;
29320;SDS011;16323;51.130;6.612;2022-10-15T11:17:21;1.27;;;0.20;;
29320;SDS011;16323;51.130;6.612;2022-10-15T11:19:54;0.30;;;0.30;;
29320;SDS011;16323;51.130;6.612;2022-10-15T11:22:49;0.50;;;0.40;;
29320;SDS011;16323;51.130;6.612;2022-10-15T11:25:28;0.35;;;0.30;;
29320;SDS011;16323;51.130;6.612;2022-10-15T11:28:05;0.80;;;0.40;;
29320;SDS011;16323;51.130;6.612;2022-10-15T11:30:48;0.30;;;0.30;;
29320;SDS011;16323;51.130;6.612;2022-10-15T11:33:24;1.08;;;0.40;;
29320;SDS011;16323;51.130;6.612;2022-10-15T11:36:04;0.32;;;0.30;;
29320;SDS011;16323;51.130;6.612;2022-10-15T11:38:42;0.40;;;0.38;;
29320;SDS011;16323;51.130;6.612;2022-10-15T11:41:19;0.50;;;0.30;;
29320;SDS011;16323;51.130;6.612;2022-10-15T11:44:03;0.60;;;0.45;;
29320;SDS011;16323;51.130;6.612;2022-10-15T11:46:49;0.45;;;0.40;;
29320;SDS011;16323;51.130;6.612;2022-10-15T11:49:29;0.60;;;0.40;;
29320;SDS011;16323;51.130;6.612;2022-10-15T11:52:12;0.52;;;0.32;;
29320;SDS011;16323;51.130;6.612;2022-10-15T11:54:52;1.65;;;0.52;;
29320;SDS011;16323;51.130;6.612;2022-10-15T11:57:28;0.65;;;0.30;;
29320;SDS011;16323;51.130;6.612;2022-10-15T11:59:59;0.40;;;0.40;;
29320;SDS011;16323;51.130;6.612;2022-10-15T12:02:31;0.50;;;0.40;;
29320;SDS011;16323;51.130;6.612;2022-10-15T12:05:01;0.50;;;0.38;;
29320;SDS011;16323;51.130;6.612;2022-10-15T12:07:32;0.45;;;0.40;;
29320;SDS011;16323;51.130;6.612;2022-10-15T12:10:04;0.50;;;0.30;;
29320;SDS011;16323;51.130;6.612;2022-10-15T12:12:45;0.50;;;0.30;;
29320;SDS011;16323;51.130;6.612;2022-10-15T12:15:19;0.35;;;0.30;;
29320;SDS011;16323;51.130;6.612;2022-10-15T12:17:54;0.50;;;0.40;;
29320;SDS011;16323;51.130;6.612;2022-10-15T12:20:27;0.65;;;0.22;;
29320;SDS011;16323;51.130;6.612;2022-10-15T12:22:56;0.80;;;0.20;;
29320;SDS011;16323;51.130;6.612;2022-10-15T12:25:41;0.20;;;0.20;;
29320;SDS011;16323;51.130;6.612;2022-10-15T12:28:16;0.22;;;0.20;;
29320;SDS011;16323;51.130;6.612;2022-10-15T12:30:52;0.32;;;0.20;;
29320;SDS011;16323;51.130;6.612;2022-10-15T12:33:25;0.43;;;0.20;;
29320;SDS011;16323;51.130;6.612;2022-10-15T12:35:57;0.32;;;0.20;;
29320;SDS011;16323;51.130;6.612;2022-10-15T12:38:27;0.40;;;0.30;;
29320;SDS011;16323;51.130;6.612;2022-10-15T12:40:57;0.40;;;0.30;;
29320;SDS011;16323;51.130;6.612;2022-10-15T12:43:31;0.38;;;0.28;;
29320;SDS011;16323;51.130;6.612;2022-10-15T12:46:00;0.20;;;0.13;;
29320;SDS011;16323;51.130;6.612;2022-10-15T12:48:33;1.95;;;0.30;;
29320;SDS011;16323;51.130;6.612;2022-10-15T12:53:56;11.43;;;0.60;;
29320;SDS011;16323;51.130;6.612;2022-10-15T12:56:24;7.82;;;0.95;;
29320;SDS011;16323;51.130;6.612;2022-10-15T12:59:03;2.30;;;0.43;;
29320;SDS011;16323;51.130;6.612;2022-10-15T13:01:50;4.95;;;0.57;;
29320;SDS011;16323;51.130;6.612;2022-10-15T13:04:17;3.55;;;0.68;;
29320;SDS011;16323;51.130;6.612;2022-10-15T13:06:44;4.85;;;0.50;;
29320;SDS011;16323;51.130;6.612;2022-10-15T13:09:21;2.85;;;0.45;;
29320;SDS011;16323;51.130;6.612;2022-10-15T13:11:53;1.10;;;0.30;;
29320;SDS011;16323;51.130;6.612;2022-10-15T13:14:29;0.85;;;0.40;;
29320;SDS011;16323;51.130;6.612;2022-10-15T13:17:01;0.65;;;0.40;;
29320;SDS011;16323;51.130;6.612;2022-10-15T13:19:31;4.55;;;0.40;;
29320;SDS011;16323;51.130;6.612;2022-10-15T13:22:00;6.57;;;0.50;;
29320;SDS011;16323;51.130;6.612;2022-10-15T13:24:29;0.47;;;0.30;;
29320;SDS011;16323;51.130;6.612;2022-10-15T13:27:11;0.85;;;0.30;;
29320;SDS011;16323;51.130;6.612;2022-10-15T13:29:51;0.30;;;0.20;;
29320;SDS011;16323;51.130;6.612;2022-10-15T13:32:19;2.42;;;0.40;;
29320;SDS011;16323;51.130;6.612;2022-10-15T13:34:47;1.75;;;0.38;;
29320;SDS011;16323;51.130;6.612;2022-10-15T13:37:16;0.75;;;0.32;;
29320;SDS011;16323;51.130;6.612;2022-10-15T13:39:44;2.55;;;0.40;;
29320;SDS011;16323;51.130;6.612;2022-10-15T13:42:17;0.57;;;0.30;;
29320;SDS011;16323;51.130;6.612;2022-10-15T13:44:55;1.25;;;0.30;;
29320;SDS011;16323;51.130;6.612;2022-10-15T13:47:25;1.88;;;0.30;;
29320;SDS011;16323;51.130;6.612;2022-10-15T13:50:09;1.35;;;0.40;;
29320;SDS011;16323;51.130;6.612;2022-10-15T13:52:45;0.30;;;0.25;;
29320;SDS011;16323;51.130;6.612;2022-10-15T13:55:19;0.55;;;0.25;;
29320;SDS011;16323;51.130;6.612;2022-10-15T13:57:48;0.65;;;0.43;;
29320;SDS011;16323;51.130;6.612;2022-10-15T14:00:23;0.85;;;0.30;;
29320;SDS011;16323;51.130;6.612;2022-10-15T14:03:08;0.88;;;0.30;;
29320;SDS011;16323;51.130;6.612;2022-10-15T14:05:39;1.55;;;0.20;;
29320;SDS011;16323;51.130;6.612;2022-10-15T14:08:13;0.50;;;0.30;;
29320;SDS011;16323;51.130;6.612;2022-10-15T14:10:41;1.95;;;0.40;;
29320;SDS011;16323;51.130;6.612;2022-10-15T14:13:08;0.17;;;0.17;;
29320;SDS011;16323;51.130;6.612;2022-10-15T14:15:47;0.30;;;0.20;;
29320;SDS011;16323;51.130;6.612;2022-10-15T14:18:27;2.55;;;0.20;;
29320;SDS011;16323;51.130;6.612;2022-10-15T14:20:56;2.17;;;0.40;;
29320;SDS011;16323;51.130;6.612;2022-10-15T14:23:24;1.35;;;0.43;;
29320;SDS011;16323;51.130;6.612;2022-10-15T14:25:53;0.50;;;0.32;;
29320;SDS011;16323;51.130;6.612;2022-10-15T14:28:22;0.30;;;0.20;;
29320;SDS011;16323;51.130;6.612;2022-10-15T14:30:52;1.00;;;0.52;;
29320;SDS011;16323;51.130;6.612;2022-10-15T14:33:29;0.88;;;0.30;;
29320;SDS011;16323;51.130;6.612;2022-10-15T14:36:10;0.35;;;0.28;;
29320;SDS011;16323;51.130;6.612;2022-10-15T14:38:39;0.85;;;0.20;;
29320;SDS011;16323;51.130;6.612;2022-10-15T14:41:17;1.02;;;0.50;;
29320;SDS011;16323;51.130;6.612;2022-10-15T14:44:02;1.35;;;0.30;;
29320;SDS011;16323;51.130;6.612;2022-10-15T14:46:37;0.43;;;0.30;;
29320;SDS011;16323;51.130;6.612;2022-10-15T14:49:13;1.13;;;0.45;;
29320;SDS011;16323;51.130;6.612;2022-10-15T14:51:44;0.63;;;0.20;;
29320;SDS011;16323;51.130;6.612;2022-10-15T14:54:17;0.13;;;0.13;;
29320;SDS011;16323;51.130;6.612;2022-10-15T14:56:47;0.70;;;0.45;;
29320;SDS011;16323;51.130;6.612;2022-10-15T14:59:17;1.27;;;0.50;;
29320;SDS011;16323;51.130;6.612;2022-10-15T15:01:53;2.25;;;0.45;;
29320;SDS011;16323;51.130;6.612;2022-10-15T15:04:31;1.60;;;0.28;;
29320;SDS011;16323;51.130;6.612;2022-10-15T15:07:00;1.42;;;0.30;;
29320;SDS011;16323;51.130;6.612;2022-10-15T15:09:27;0.30;;;0.25;;
29320;SDS011;16323;51.130;6.612;2022-10-15T15:11:54;1.85;;;0.30;;
29320;SDS011;16323;51.130;6.612;2022-10-15T15:14:21;1.48;;;0.40;;
29320;SDS011;16323;51.130;6.612;2022-10-15T15:16:52;0.80;;;0.25;;